Time;durP1;ratioP1;P1;durP2;ratioP2;P2;SDS_P1;SDS_P2;PMS_P1;PMS_P2;Temp;Humidity;BMP_temperature;BMP_pressure;BME280_temperature;BME280_humidity;BME280_pressure;Samples;Min_cycle;Max_cycle;Signal;HPM_P1;HPM_P2
2022/09/06 00:00:13;;;;;;;1.30;1.10;;;22.30;43.80;;;;;;5064588;28;20524;-68
2022/09/06 00:02:39;;;;;;;1.30;1.20;;;22.20;44.90;;;;;;5063103;28;20458;-69
2022/09/06 00:05:06;;;;;;;1.30;1.10;;;22.20;44.80;;;;;;5063194;28;20441;-69
2022/09/06 00:07:32;;;;;;;1.30;1.10;;;22.30;43.80;;;;;;5056776;28;20421;-68
2022/09/06 00:09:58;;;;;;;1.30;1.10;;;22.30;44.60;;;;;;5072189;28;20418;-69
2022/09/06 00:12:24;;;;;;;1.50;1.30;;;22.20;45.30;;;;;;5061806;28;20235;-69
2022/09/06 00:14:50;;;;;;;1.30;1.20;;;22.10;45.80;;;;;;5056772;28;20184;-69
2022/09/06 00:17:17;;;;;;;1.40;1.20;;;22.00;45.20;;;;;;5057136;28;20192;-69
2022/09/06 00:19:42;;;;;;;1.30;1.10;;;21.90;45.60;;;;;;5066863;28;20506;-69
2022/09/06 00:22:08;;;;;;;1.30;1.20;;;22.10;44.60;;;;;;5060218;28;20473;-69
2022/09/06 00:24:35;;;;;;;1.30;1.10;;;22.10;45.50;;;;;;5062593;28;20259;-69
2022/09/06 00:27:02;;;;;;;1.37;1.20;;;21.80;46.40;;;;;;5065331;28;20183;-69
2022/09/06 00:29:27;;;;;;;1.30;1.10;;;22.00;44.90;;;;;;5062513;28;20436;-70
2022/09/06 00:31:53;;;;;;;1.30;1.10;;;22.00;45.90;;;;;;5064130;28;20458;-68
2022/09/06 00:34:18;;;;;;;1.30;1.10;;;21.90;45.30;;;;;;5066122;28;20190;-69
2022/09/06 00:36:44;;;;;;;1.40;1.20;;;22.00;45.70;;;;;;5064985;28;20271;-69
2022/09/06 00:39:10;;;;;;;1.30;1.20;;;21.80;45.50;;;;;;5066851;28;20214;-69
2022/09/06 00:41:35;;;;;;;1.40;1.20;;;21.80;46.60;;;;;;5069612;28;20203;-69
2022/09/06 00:44:01;;;;;;;1.30;1.10;;;21.90;45.50;;;;;;5055679;28;20553;-69
2022/09/06 00:46:29;;;;;;;1.37;1.17;;;22.00;45.80;;;;;;5061453;28;20255;-68
2022/09/06 00:49:07;;;;;;;1.40;1.20;;;21.90;45.50;;;;;;5062885;28;20187;-69
2022/09/06 00:51:34;;;;;;;1.40;1.27;;;21.90;46.10;;;;;;5061571;28;20472;-69
2022/09/06 00:54:04;;;;;;;1.40;1.20;;;21.90;45.30;;;;;;5071240;28;20425;-68
2022/09/06 00:56:32;;;;;;;1.40;1.20;;;21.80;46.60;;;;;;5061023;28;21170;-70
2022/09/06 00:58:59;;;;;;;1.40;1.20;;;21.70;45.70;;;;;;5067347;28;20522;-69
2022/09/06 01:01:25;;;;;;;1.40;1.30;;;21.70;46.80;;;;;;5069926;28;20945;-69
2022/09/06 01:03:51;;;;;;;1.40;1.20;;;21.60;47.20;;;;;;5053471;28;20430;-69
2022/09/06 01:06:16;;;;;;;1.30;1.10;;;21.50;46.90;;;;;;5064294;28;20615;-69
2022/09/06 01:08:56;;;;;;;1.40;1.20;;;21.50;47.30;;;;;;5065596;28;20763;-69
2022/09/06 01:11:48;;;;;;;2.43;1.63;;;21.40;47.50;;;;;;5062205;28;20662;-68
2022/09/06 01:14:52;;;;;;;1.30;1.20;;;21.60;46.70;;;;;;5047255;28;20517;-69
2022/09/06 01:17:53;;;;;;;1.40;1.27;;;21.60;47.00;;;;;;5064699;28;20455;-68
2022/09/06 01:20:19;;;;;;;1.40;1.20;;;21.70;47.20;;;;;;5015513;28;20475;-69
2022/09/06 01:23:27;;;;;;;1.40;1.30;;;21.50;46.30;;;;;;5045913;28;20465;-70
2022/09/06 01:26:23;;;;;;;1.40;1.20;;;21.50;47.40;;;;;;5066264;28;20207;-68
2022/09/06 01:28:50;;;;;;;1.30;1.10;;;21.30;47.90;;;;;;5065226;28;20570;-68
2022/09/06 01:31:37;;;;;;;1.30;1.10;;;21.30;48.10;;;;;;5060318;28;20453;-70
2022/09/06 01:34:07;;;;;;;1.30;1.10;;;21.30;48.10;;;;;;5065975;28;20519;-69
2022/09/06 01:36:48;;;;;;;1.40;1.20;;;21.40;47.10;;;;;;5069690;28;20429;-69
2022/09/06 01:39:29;;;;;;;1.40;1.20;;;21.50;47.30;;;;;;5064542;28;20892;-69
2022/09/06 01:41:58;;;;;;;1.30;1.20;;;21.50;48.10;;;;;;5067570;28;20458;-69
2022/09/06 01:44:26;;;;;;;1.30;1.13;;;21.50;47.40;;;;;;5068089;28;20446;-69
2022/09/06 01:46:51;;;;;;;1.40;1.20;;;21.50;46.40;;;;;;5070374;28;20432;-69
2022/09/06 01:49:40;;;;;;;1.40;1.20;;;21.30;47.40;;;;;;5060404;28;20438;-68
2022/09/06 01:52:17;;;;;;;1.30;1.10;;;21.40;48.00;;;;;;5035109;28;20634;-69
2022/09/06 01:55:04;;;;;;;1.30;1.10;;;21.50;47.10;;;;;;5066259;28;20914;-69
2022/09/06 01:58:14;;;;;;;1.40;1.20;;;21.60;46.80;;;;;;5060830;28;20789;-70
2022/09/06 02:01:06;;;;;;;1.30;1.20;;;21.30;47.10;;;;;;5061699;28;20460;-69
2022/09/06 02:03:48;;;;;;;1.30;1.10;;;21.30;47.60;;;;;;5030556;28;20923;-69
2022/09/06 02:06:20;;;;;;;1.30;1.13;;;21.40;47.80;;;;;;5060133;28;20464;-68
2022/09/06 02:08:52;;;;;;;1.30;1.17;;;21.30;48.00;;;;;;5058843;28;20430;-69
2022/09/06 02:11:18;;;;;;;1.30;1.13;;;21.20;48.10;;;;;;5050971;28;20437;-69
2022/09/06 02:13:49;;;;;;;1.30;1.20;;;21.30;48.40;;;;;;5064375;28;21312;-69
2022/09/06 02:16:19;;;;;;;1.30;1.10;;;21.20;48.50;;;;;;5062169;28;20462;-70
2022/09/06 02:19:16;;;;;;;1.30;1.10;;;21.10;48.80;;;;;;5061899;28;20498;-69
2022/09/06 02:21:44;;;;;;;1.40;1.20;;;21.20;49.10;;;;;;5058921;28;20963;-68
2022/09/06 02:24:18;;;;;;;1.40;1.20;;;21.20;49.10;;;;;;5067671;28;20766;-69
2022/09/06 02:26:45;;;;;;;1.40;1.27;;;21.20;48.90;;;;;;5051938;28;20430;-69
2022/09/06 02:29:12;;;;;;;1.30;1.10;;;21.40;47.90;;;;;;5062541;28;20516;-69
2022/09/06 02:31:41;;;;;;;1.30;1.10;;;21.30;48.90;;;;;;5059841;28;20445;-69
2022/09/06 02:34:08;;;;;;;1.30;1.10;;;21.30;48.50;;;;;;5064730;28;20483;-69
2022/09/06 02:36:35;;;;;;;1.30;1.27;;;21.30;48.60;;;;;;5061744;28;20487;-69
2022/09/06 02:39:01;;;;;;;1.53;1.30;;;21.40;48.10;;;;;;5061800;28;20440;-69
2022/09/06 02:41:29;;;;;;;1.30;1.20;;;21.40;48.70;;;;;;5064517;28;20460;-70
2022/09/06 02:43:55;;;;;;;1.30;1.10;;;21.40;47.80;;;;;;5061240;28;20227;-69
2022/09/06 02:46:23;;;;;;;1.30;1.10;;;21.40;48.80;;;;;;5064103;28;20511;-69
2022/09/06 02:48:49;;;;;;;1.30;1.10;;;21.20;48.70;;;;;;5068095;28;20376;-68
2022/09/06 02:51:15;;;;;;;1.30;1.10;;;21.30;48.50;;;;;;5063721;28;20835;-68
2022/09/06 02:53:41;;;;;;;1.30;1.20;;;21.30;48.90;;;;;;5065383;28;20444;-69
2022/09/06 02:56:07;;;;;;;1.30;1.10;;;21.30;47.80;;;;;;5063071;28;20480;-69
2022/09/06 02:58:33;;;;;;;1.30;1.13;;;21.30;47.90;;;;;;5065545;28;20462;-69
2022/09/06 03:00:59;;;;;;;1.30;1.10;;;19.80;53.40;;;;;;5064803;28;20460;-69
2022/09/06 03:03:26;;;;;;;1.30;1.10;;;19.00;59.40;;;;;;5070928;28;20501;-69
2022/09/06 03:05:53;;;;;;;1.30;1.10;;;19.30;58.50;;;;;;5068134;28;20274;-69
2022/09/06 03:08:20;;;;;;;1.30;1.10;;;19.40;57.90;;;;;;5067304;28;20787;-69
2022/09/06 03:10:54;;;;;;;1.30;1.10;;;19.70;57.10;;;;;;5068578;28;20503;-69
2022/09/06 03:13:21;;;;;;;1.30;1.10;;;20.40;54.10;;;;;;5071180;28;20543;-69
2022/09/06 03:15:57;;;;;;;1.30;1.10;;;21.00;49.90;;;;;;5069402;28;20440;-68
2022/09/06 03:18:27;;;;;;;1.30;1.20;;;21.40;48.60;;;;;;5070235;28;20522;-68
2022/09/06 03:20:54;;;;;;;1.30;1.20;;;21.50;48.40;;;;;;5071310;28;20467;-68
2022/09/06 03:23:23;;;;;;;1.30;1.20;;;21.40;49.10;;;;;;5062599;28;20514;-68
2022/09/06 03:25:49;;;;;;;1.30;1.10;;;21.40;49.50;;;;;;5069201;28;21032;-69
2022/09/06 03:28:16;;;;;;;1.30;1.10;;;21.50;51.00;;;;;;5063773;28;20508;-69
2022/09/06 03:30:44;;;;;;;1.30;1.20;;;21.40;52.70;;;;;;5065360;28;20650;-69
2022/09/06 03:33:10;;;;;;;1.30;1.20;;;21.30;53.90;;;;;;5068364;28;20437;-70
2022/09/06 03:35:36;;;;;;;1.30;1.20;;;21.40;54.00;;;;;;5070272;28;20794;-68
2022/09/06 03:38:01;;;;;;;1.57;1.17;;;21.20;55.00;;;;;;5070097;28;20680;-69
2022/09/06 03:40:27;;;;;;;1.30;1.20;;;21.30;54.70;;;;;;5071084;28;20210;-68
2022/09/06 03:42:53;;;;;;;1.30;1.20;;;21.30;55.10;;;;;;5072153;28;20179;-69
2022/09/06 03:45:19;;;;;;;1.30;1.10;;;21.40;54.80;;;;;;5065723;28;20187;-69
2022/09/06 03:47:44;;;;;;;1.30;1.10;;;21.40;55.10;;;;;;5070564;28;20186;-69
2022/09/06 03:50:10;;;;;;;1.30;1.13;;;21.40;55.30;;;;;;5064258;28;20436;-69
2022/09/06 03:52:36;;;;;;;1.30;1.20;;;21.30;55.40;;;;;;5066993;28;20223;-69
2022/09/06 03:55:03;;;;;;;1.30;1.20;;;21.00;57.10;;;;;;5061067;28;20189;-69
2022/09/06 03:57:29;;;;;;;1.30;1.03;;;21.20;57.90;;;;;;5070055;28;21013;-69
2022/09/06 03:59:55;;;;;;;1.30;1.20;;;21.30;56.60;;;;;;5058189;28;20644;-70
2022/09/06 04:02:23;;;;;;;1.30;1.20;;;21.40;55.60;;;;;;5062913;28;20230;-68
2022/09/06 04:04:49;;;;;;;1.30;1.10;;;21.50;55.60;;;;;;5066472;28;20176;-69
2022/09/06 04:07:15;;;;;;;1.30;1.20;;;21.40;56.30;;;;;;5056455;28;20430;-69
2022/09/06 04:09:40;;;;;;;1.30;1.10;;;21.40;55.80;;;;;;5066410;28;20320;-69
2022/09/06 04:12:06;;;;;;;1.30;1.10;;;21.40;55.00;;;;;;5058283;28;20210;-69
2022/09/06 04:14:31;;;;;;;1.30;1.13;;;21.30;55.50;;;;;;5071947;28;20205;-69
2022/09/06 04:16:57;;;;;;;1.30;1.10;;;21.10;56.10;;;;;;5069800;28;20720;-70
2022/09/06 04:19:23;;;;;;;1.30;1.10;;;21.00;56.60;;;;;;5068263;28;20242;-69
2022/09/06 04:21:48;;;;;;;1.30;1.20;;;21.00;56.00;;;;;;5064487;28;20206;-69
2022/09/06 04:24:14;;;;;;;1.30;1.10;;;21.20;55.40;;;;;;5071745;28;20186;-68
2022/09/06 04:26:40;;;;;;;1.30;1.20;;;21.10;55.60;;;;;;5060830;28;20665;-68
2022/09/06 04:29:05;;;;;;;1.30;1.13;;;21.20;55.40;;;;;;5060527;28;20188;-70
2022/09/06 04:31:31;;;;;;;1.30;1.20;;;21.10;55.90;;;;;;5069283;28;20220;-69
2022/09/06 04:33:57;;;;;;;1.30;1.20;;;21.10;55.60;;;;;;5059892;28;20579;-69
2022/09/06 04:36:22;;;;;;;1.40;1.20;;;21.20;55.30;;;;;;5058939;28;20652;-69
2022/09/06 04:38:48;;;;;;;1.30;1.30;;;21.10;55.60;;;;;;5064838;28;20177;-70
2022/09/06 04:41:17;;;;;;;1.30;1.10;;;21.40;54.80;;;;;;5069659;28;20258;-69
2022/09/06 04:43:43;;;;;;;1.30;1.10;;;21.30;55.10;;;;;;5068330;28;20261;-69
2022/09/06 04:46:29;;;;;;;1.30;1.10;;;21.20;55.60;;;;;;5063027;28;20915;-69
2022/09/06 04:48:55;;;;;;;1.30;1.10;;;21.20;55.80;;;;;;5065791;28;20429;-69
2022/09/06 04:51:22;;;;;;;1.30;1.17;;;21.00;56.60;;;;;;5064385;28;20486;-68
2022/09/06 04:53:48;;;;;;;1.40;1.30;;;21.20;55.50;;;;;;5064803;28;20435;-69
2022/09/06 04:56:18;;;;;;;1.30;1.20;;;21.10;55.50;;;;;;5056137;28;20924;-69
2022/09/06 04:58:45;;;;;;;1.30;1.10;;;21.10;55.70;;;;;;5057640;28;20183;-69
2022/09/06 05:01:12;;;;;;;1.30;1.20;;;21.20;55.00;;;;;;5064022;28;20869;-69
2022/09/06 05:03:38;;;;;;;1.30;1.20;;;21.30;53.70;;;;;;5067898;28;20470;-69
2022/09/06 05:06:09;;;;;;;1.30;1.20;;;21.20;55.50;;;;;;5071035;28;20428;-69
2022/09/06 05:08:38;;;;;;;1.30;1.20;;;21.20;55.30;;;;;;5070249;28;20183;-70
2022/09/06 05:11:05;;;;;;;1.30;1.20;;;21.10;55.50;;;;;;5062874;28;20449;-69
2022/09/06 05:13:31;;;;;;;1.33;1.30;;;21.30;54.70;;;;;;5067577;28;20463;-69
2022/09/06 05:16:00;;;;;;;1.30;1.10;;;21.40;54.30;;;;;;5063106;28;20924;-69
2022/09/06 05:18:26;;;;;;;1.30;1.20;;;21.20;55.60;;;;;;5063737;28;20638;-69
2022/09/06 05:20:52;;;;;;;1.30;1.20;;;20.90;57.00;;;;;;5054032;28;20468;-69
2022/09/06 05:23:19;;;;;;;1.30;1.20;;;21.10;56.20;;;;;;5062243;28;20305;-69
2022/09/06 05:25:45;;;;;;;1.30;1.10;;;20.90;56.90;;;;;;5068225;28;20437;-69
2022/09/06 05:28:10;;;;;;;1.30;1.10;;;21.00;58.30;;;;;;5065624;28;20479;-70
2022/09/06 05:30:36;;;;;;;1.30;1.20;;;21.20;57.10;;;;;;5056728;28;20179;-69
2022/09/06 05:33:01;;;;;;;1.30;1.10;;;21.10;57.70;;;;;;5069898;28;20175;-69
2022/09/06 05:35:27;;;;;;;1.30;1.20;;;20.70;58.60;;;;;;5065707;28;20726;-69
2022/09/06 05:37:52;;;;;;;1.30;1.10;;;20.30;63.10;;;;;;5069496;28;20193;-70
2022/09/06 05:40:18;;;;;;;1.30;1.10;;;20.10;63.60;;;;;;5069353;28;20602;-69
2022/09/06 05:42:44;;;;;;;1.30;1.10;;;20.20;61.60;;;;;;5069894;28;20202;-69
2022/09/06 05:45:09;;;;;;;1.30;1.10;;;20.10;61.30;;;;;;5068654;28;20546;-69
2022/09/06 05:47:35;;;;;;;1.30;1.20;;;20.30;61.30;;;;;;5065300;28;20183;-67
2022/09/06 05:50:01;;;;;;;1.30;1.20;;;20.40;59.70;;;;;;5067525;28;20183;-67
2022/09/06 05:52:27;;;;;;;1.30;1.20;;;20.50;58.30;;;;;;5065288;28;20630;-67
2022/09/06 05:54:53;;;;;;;1.30;1.10;;;20.80;58.60;;;;;;5067568;28;20179;-66
2022/09/06 05:57:18;;;;;;;1.30;1.20;;;21.10;57.40;;;;;;5067074;28;20471;-67
2022/09/06 05:59:44;;;;;;;1.30;1.20;;;21.40;58.20;;;;;;5065953;28;20634;-69
2022/09/06 06:02:09;;;;;;;1.30;1.10;;;21.40;56.80;;;;;;5063627;28;20197;-69
2022/09/06 06:04:35;;;;;;;1.30;1.10;;;21.40;55.70;;;;;;5052736;28;20183;-69
2022/09/06 06:07:01;;;;;;;1.30;1.10;;;21.20;57.00;;;;;;5070028;28;20171;-69
2022/09/06 06:09:26;;;;;;;1.30;1.10;;;21.10;57.60;;;;;;5062367;28;20219;-69
2022/09/06 06:11:52;;;;;;;1.30;1.20;;;21.00;57.30;;;;;;5064720;28;20207;-67
2022/09/06 06:14:17;;;;;;;1.30;1.20;;;21.10;56.80;;;;;;5066694;28;20188;-66
2022/09/06 06:16:43;;;;;;;1.30;1.13;;;21.30;57.50;;;;;;5062555;28;20237;-66
2022/09/06 06:19:09;;;;;;;1.30;1.07;;;21.50;57.40;;;;;;5060949;28;20241;-67
2022/09/06 06:21:36;;;;;;;1.30;1.20;;;21.50;57.20;;;;;;5061350;28;20674;-67
2022/09/06 06:24:03;;;;;;;1.30;1.20;;;21.60;56.30;;;;;;5072875;28;20179;-66
2022/09/06 06:26:31;;;;;;;1.30;1.10;;;21.80;55.30;;;;;;5069042;28;20521;-67
2022/09/06 06:29:00;;;;;;;1.30;1.20;;;21.70;55.80;;;;;;5075917;28;20503;-67
2022/09/06 06:31:30;;;;;;;1.30;1.20;;;21.70;56.00;;;;;;5049909;28;20449;-67
2022/09/06 06:33:56;;;;;;;1.30;1.10;;;21.30;54.30;;;;;;5073774;28;20436;-66
2022/09/06 06:36:25;;;;;;;1.30;1.17;;;21.10;58.40;;;;;;5072574;28;20425;-66
2022/09/06 06:38:53;;;;;;;1.30;1.20;;;21.30;58.70;;;;;;5068096;28;20761;-66
2022/09/06 06:41:20;;;;;;;1.30;1.20;;;21.00;56.60;;;;;;5069946;28;20475;-67
2022/09/06 06:43:45;;;;;;;1.30;1.30;;;21.10;58.90;;;;;;5071924;28;20489;-67
2022/09/06 06:46:16;;;;;;;1.30;1.10;;;21.40;59.20;;;;;;5072422;28;20841;-66
2022/09/06 06:48:43;;;;;;;1.30;1.10;;;21.50;58.40;;;;;;5070713;28;20177;-66
2022/09/06 06:51:15;;;;;;;1.30;1.10;;;21.70;57.80;;;;;;5068735;28;20441;-67
2022/09/06 06:53:42;;;;;;;1.30;1.10;;;21.80;58.20;;;;;;5071464;28;21111;-67
2022/09/06 06:56:29;;;;;;;1.30;1.20;;;21.80;57.70;;;;;;5074827;28;20580;-66
2022/09/06 06:58:56;;;;;;;1.30;1.20;;;22.00;57.10;;;;;;5071847;28;20432;-67
2022/09/06 07:01:23;;;;;;;1.30;1.10;;;22.00;56.50;;;;;;5071522;28;20615;-66
2022/09/06 07:03:49;;;;;;;1.30;1.23;;;22.00;55.50;;;;;;5074524;28;20460;-66
2022/09/06 07:06:16;;;;;;;1.30;1.20;;;22.20;57.20;;;;;;5072096;28;21110;-67
2022/09/06 07:08:43;;;;;;;1.30;1.20;;;22.20;54.20;;;;;;5072655;28;20465;-67
2022/09/06 07:11:11;;;;;;;1.30;1.13;;;21.90;57.50;;;;;;5070818;28;20532;-66
2022/09/06 07:13:37;;;;;;;2.03;1.73;;;21.90;55.40;;;;;;5073996;28;20476;-66
2022/09/06 07:16:29;;;;;;;1.50;1.40;;;21.40;58.00;;;;;;5073424;28;20431;-67
2022/09/06 07:18:55;;;;;;;1.30;1.20;;;21.60;60.10;;;;;;5068420;28;20455;-67
2022/09/06 07:21:25;;;;;;;1.30;1.20;;;21.40;60.00;;;;;;5069734;28;20480;-67
2022/09/06 07:23:55;;;;;;;1.30;1.20;;;21.70;59.50;;;;;;5068275;28;20158;-67
2022/09/06 07:26:26;;;;;;;1.30;1.20;;;21.90;59.10;;;;;;5068203;28;20966;-68
2022/09/06 07:28:53;;;;;;;1.30;1.10;;;22.40;58.60;;;;;;5060769;28;20811;-68
2022/09/06 07:31:19;;;;;;;1.30;1.20;;;22.40;53.80;;;;;;5072892;28;20822;-68
2022/09/06 07:33:44;;;;;;;1.30;1.20;;;22.40;55.00;;;;;;5062994;28;20424;-69
2022/09/06 07:36:10;;;;;;;1.30;1.30;;;22.20;57.90;;;;;;5054850;28;20179;-67
2022/09/06 07:38:36;;;;;;;1.60;1.40;;;22.00;59.70;;;;;;5071510;28;20182;-67
2022/09/06 07:41:05;;;;;;;1.30;1.10;;;22.00;60.70;;;;;;5071745;28;20203;-67
2022/09/06 07:43:31;;;;;;;1.30;1.10;;;21.90;62.00;;;;;;5069717;28;20437;-67
2022/09/06 07:46:16;;;;;;;1.30;1.10;;;21.90;62.00;;;;;;5069734;28;20421;-67
2022/09/06 07:48:44;;;;;;;1.30;1.20;;;22.10;59.90;;;;;;5059933;28;20405;-66
2022/09/06 07:51:15;;;;;;;1.30;1.20;;;21.70;60.70;;;;;;5057148;28;20473;-67
2022/09/06 07:53:43;;;;;;;1.30;1.20;;;21.30;63.20;;;;;;5061252;28;20433;-67
2022/09/06 07:56:11;;;;;;;1.30;1.10;;;21.40;65.50;;;;;;5061330;28;20424;-67
2022/09/06 07:58:38;;;;;;;1.30;1.13;;;21.40;65.50;;;;;;5070010;28;20954;-67
2022/09/06 08:01:29;;;;;;;1.30;1.10;;;21.50;66.20;;;;;;5064552;28;20464;-67
2022/09/06 08:04:01;;;;;;;1.30;1.10;;;21.80;62.80;;;;;;5059336;28;20429;-68
2022/09/06 08:06:28;;;;;;;1.30;1.10;;;21.90;62.90;;;;;;5061652;28;20525;-67
2022/09/06 08:08:54;;;;;;;1.30;1.30;;;22.10;60.80;;;;;;5059125;28;20410;-67
2022/09/06 08:11:21;;;;;;;1.40;1.30;;;22.30;60.70;;;;;;5058729;28;20443;-67
2022/09/06 08:13:51;;;;;;;1.30;1.13;;;22.40;58.10;;;;;;5055807;28;20417;-67
2022/09/06 08:16:18;;;;;;;1.30;1.20;;;22.40;59.10;;;;;;5057311;28;20423;-67
2022/09/06 08:18:44;;;;;;;1.30;1.10;;;22.30;57.90;;;;;;5060711;28;20423;-67
2022/09/06 08:21:14;;;;;;;1.30;1.10;;;22.70;56.10;;;;;;5060540;28;20462;-67
2022/09/06 08:23:48;;;;;;;1.30;1.20;;;22.70;55.50;;;;;;5069788;28;20190;-68
2022/09/06 08:26:17;;;;;;;1.30;1.20;;;22.90;54.40;;;;;;5064195;28;20936;-67
2022/09/06 08:28:43;;;;;;;1.30;1.27;;;23.10;52.60;;;;;;5058792;28;20431;-67
2022/09/06 08:31:14;;;;;;;1.30;1.10;;;23.30;52.30;;;;;;5066324;28;20455;-67
2022/09/06 08:33:41;;;;;;;1.30;1.30;;;23.60;51.70;;;;;;5052262;28;20244;-67
2022/09/06 08:36:07;;;;;;;1.30;1.20;;;23.60;51.60;;;;;;5052845;28;20417;-67
2022/09/06 08:38:33;;;;;;;1.30;1.23;;;23.70;51.00;;;;;;5068835;28;20427;-67
2022/09/06 08:41:33;;;;;;;1.30;1.10;;;24.00;51.10;;;;;;5071503;28;20469;-67
2022/09/06 08:43:59;;;;;;;1.30;1.10;;;24.30;49.10;;;;;;5060103;28;20840;-67
2022/09/06 08:46:53;;;;;;;1.30;1.20;;;24.60;48.30;;;;;;5067273;28;20431;-67
2022/09/06 08:49:19;;;;;;;1.30;1.20;;;24.60;47.20;;;;;;5063349;28;20169;-68
2022/09/06 08:51:47;;;;;;;1.90;1.60;;;24.80;48.50;;;;;;5061437;28;20460;-68
2022/09/06 08:54:45;;;;;;;1.30;1.20;;;25.10;46.90;;;;;;5060250;28;20172;-67
2022/09/06 08:57:29;;;;;;;1.30;1.20;;;25.10;47.10;;;;;;5052577;28;20443;-68
2022/09/06 08:59:59;;;;;;;1.50;1.40;;;25.50;46.60;;;;;;5070495;28;21018;-68
2022/09/06 09:02:25;;;;;;;1.30;1.20;;;25.90;43.30;;;;;;5064502;28;20541;-67
2022/09/06 09:04:50;;;;;;;1.30;1.20;;;26.30;41.50;;;;;;5061275;28;20501;-67
2022/09/06 09:07:41;;;;;;;1.30;1.20;;;26.40;41.20;;;;;;5071530;28;20580;-67
2022/09/06 09:10:20;;;;;;;1.30;1.20;;;26.70;41.80;;;;;;5059841;28;20233;-67
2022/09/06 09:12:47;;;;;;;1.30;1.10;;;26.90;39.50;;;;;;5051595;28;20487;-67
2022/09/06 09:15:16;;;;;;;1.30;1.10;;;27.10;37.40;;;;;;5060399;28;20430;-68
2022/09/06 09:17:43;;;;;;;1.30;1.20;;;27.30;38.00;;;;;;5052174;28;20421;-68
2022/09/06 09:20:09;;;;;;;1.30;1.07;;;27.60;35.80;;;;;;5059745;28;20464;-67
2022/09/06 09:22:36;;;;;;;1.30;1.20;;;27.90;35.70;;;;;;5058493;28;20885;-68
2022/09/06 09:25:04;;;;;;;1.30;1.20;;;27.50;34.90;;;;;;5060075;28;20437;-67
2022/09/06 09:27:31;;;;;;;1.30;1.20;;;27.60;35.70;;;;;;5051943;28;20426;-68
2022/09/06 09:30:00;;;;;;;1.30;1.10;;;27.90;34.00;;;;;;5059462;28;20426;-67
2022/09/06 09:32:31;;;;;;;1.30;1.10;;;28.00;35.10;;;;;;5055062;28;20460;-68
2022/09/06 09:35:25;;;;;;;1.30;1.20;;;28.40;33.60;;;;;;5062475;28;20413;-68
2022/09/06 09:38:30;;;;;;;1.30;1.10;;;28.50;33.40;;;;;;5070830;28;20417;-67
2022/09/06 09:40:59;;;;;;;1.30;1.20;;;28.50;35.00;;;;;;5062084;28;20460;-69
2022/09/06 09:43:31;;;;;;;1.30;1.20;;;28.00;33.40;;;;;;5062549;28;20919;-68
2022/09/06 09:46:14;;;;;;;1.30;1.17;;;27.50;36.60;;;;;;5053936;28;20445;-67
2022/09/06 09:49:04;;;;;;;1.30;1.20;;;27.70;35.80;;;;;;5051417;28;20421;-67
2022/09/06 09:51:35;;;;;;;1.30;1.20;;;28.30;34.30;;;;;;5047262;28;20450;-68
2022/09/06 09:54:04;;;;;;;1.30;1.20;;;27.90;34.60;;;;;;5065994;28;20759;-67
2022/09/06 09:56:51;;;;;;;1.30;1.10;;;28.00;35.00;;;;;;5051175;28;20480;-68
2022/09/06 09:59:25;;;;;;;1.30;1.13;;;28.00;34.60;;;;;;5058777;28;20418;-68
2022/09/06 10:01:58;;;;;;;1.30;1.10;;;27.80;34.60;;;;;;5057868;28;20936;-67
2022/09/06 10:04:31;;;;;;;1.30;1.10;;;27.90;35.00;;;;;;5051153;28;20428;-68
2022/09/06 10:07:19;;;;;;;1.30;1.20;;;28.20;34.60;;;;;;5065480;28;21017;-68
2022/09/06 10:09:47;;;;;;;1.30;1.20;;;28.50;32.30;;;;;;5064898;28;20417;-67
2022/09/06 10:12:31;;;;;;;1.30;1.20;;;28.70;32.30;;;;;;5059655;28;20448;-68
2022/09/06 10:14:57;;;;;;;1.30;1.20;;;28.80;32.00;;;;;;5058406;28;20935;-68
2022/09/06 10:17:29;;;;;;;1.30;1.10;;;28.90;32.10;;;;;;5051562;28;20843;-67
2022/09/06 10:19:56;;;;;;;1.37;1.33;;;27.90;33.70;;;;;;5059271;28;20527;-68
2022/09/06 10:22:42;;;;;;;1.30;1.20;;;28.50;33.30;;;;;;5066581;28;20445;-68
2022/09/06 10:25:20;;;;;;;1.30;1.00;;;28.90;32.10;;;;;;5059353;28;20494;-68
2022/09/06 10:28:04;;;;;;;1.30;1.13;;;28.50;31.80;;;;;;5064605;28;20422;-68
2022/09/06 10:30:34;;;;;;;1.30;1.10;;;29.00;32.60;;;;;;5053802;28;20864;-68
2022/09/06 10:33:51;;;;;;;1.30;1.20;;;29.20;31.00;;;;;;5061538;28;20479;-67
2022/09/06 10:36:25;;;;;;;1.30;1.10;;;29.50;31.50;;;;;;5042180;28;20425;-67
2022/09/06 10:39:15;;;;;;;1.30;1.10;;;29.00;31.30;;;;;;5057658;28;20457;-67
2022/09/06 10:41:56;;;;;;;1.30;1.10;;;28.30;33.10;;;;;;5048961;28;21044;-69
2022/09/06 10:44:45;;;;;;;1.30;1.10;;;28.30;32.40;;;;;;5060444;28;20436;-68
2022/09/06 10:47:13;;;;;;;1.30;1.10;;;27.90;33.60;;;;;;5062741;28;20857;-69
2022/09/06 10:49:47;;;;;;;1.30;1.10;;;27.20;36.50;;;;;;5061712;28;20440;-67
2022/09/06 10:52:24;;;;;;;1.30;1.10;;;26.70;38.20;;;;;;5060423;28;20464;-68
2022/09/06 10:54:52;;;;;;;1.40;1.30;;;27.40;36.30;;;;;;5063315;28;20894;-68
2022/09/06 10:57:28;;;;;;;1.30;1.20;;;27.50;35.50;;;;;;5067307;28;20966;-68
2022/09/06 11:00:04;;;;;;;1.30;1.00;;;27.10;36.60;;;;;;5066144;28;20464;-68
2022/09/06 11:02:48;;;;;;;1.30;1.20;;;27.60;36.60;;;;;;5059543;28;20480;-69
2022/09/06 11:05:26;;;;;;;1.30;1.10;;;27.30;36.20;;;;;;5062121;28;20471;-68
2022/09/06 11:08:15;;;;;;;1.30;1.13;;;27.40;36.30;;;;;;5059236;28;21033;-68
2022/09/06 11:10:44;;;;;;;1.30;1.20;;;28.00;35.80;;;;;;5063808;28;20981;-68
2022/09/06 11:13:09;;;;;;;1.30;1.10;;;28.40;33.90;;;;;;5061367;28;20465;-68
2022/09/06 11:15:56;;;;;;;1.30;1.03;;;28.80;32.20;;;;;;5071204;28;20456;-68
2022/09/06 11:18:36;;;;;;;1.30;1.07;;;29.20;30.80;;;;;;5061372;28;20197;-68
2022/09/06 11:21:35;;;;;;;1.30;1.20;;;29.20;31.80;;;;;;5064639;28;20461;-69
2022/09/06 11:24:15;;;;;;;1.30;1.10;;;29.10;31.90;;;;;;5065238;28;20437;-70
2022/09/06 11:27:29;;;;;;;1.30;1.20;;;29.00;31.60;;;;;;5065960;28;20423;-68
2022/09/06 11:29:56;;;;;;;1.30;1.20;;;28.60;32.90;;;;;;5056244;28;21005;-68
2022/09/06 11:32:37;;;;;;;1.30;1.20;;;28.40;32.90;;;;;;5067273;28;20849;-68
2022/09/06 11:35:08;;;;;;;1.30;1.10;;;28.60;33.40;;;;;;5065705;28;20483;-69
2022/09/06 11:37:43;;;;;;;1.30;1.10;;;28.90;33.50;;;;;;5070689;28;20414;-68
2022/09/06 11:40:23;;;;;;;1.30;1.10;;;28.80;32.60;;;;;;5060714;28;20460;-68
2022/09/06 11:42:48;;;;;;;1.30;1.13;;;28.60;32.50;;;;;;5064783;28;20824;-69
2022/09/06 11:45:22;;;;;;;1.30;1.17;;;28.50;32.40;;;;;;5066718;28;20422;-68
2022/09/06 11:47:50;;;;;;;1.30;1.03;;;28.30;32.50;;;;;;5064642;28;20539;-68
2022/09/06 11:50:23;;;;;;;1.30;1.10;;;28.00;32.90;;;;;;5063161;28;20507;-68
2022/09/06 11:52:56;;;;;;;1.30;1.10;;;28.10;34.70;;;;;;5061526;28;20471;-68
2022/09/06 11:55:29;;;;;;;1.30;1.10;;;28.70;33.40;;;;;;5065123;28;20447;-68
2022/09/06 11:57:57;;;;;;;1.30;1.00;;;29.40;31.80;;;;;;5068625;28;21035;-68
2022/09/06 12:00:23;;;;;;;4.63;2.40;;;29.30;32.20;;;;;;5068225;28;20488;-68
2022/09/06 12:02:50;;;;;;;1.30;1.00;;;30.10;29.10;;;;;;5056206;28;20445;-68
2022/09/06 12:05:25;;;;;;;1.30;1.00;;;30.70;28.90;;;;;;5066950;28;20433;-68
2022/09/06 12:08:09;;;;;;;1.30;1.00;;;31.00;27.70;;;;;;5058094;28;20428;-68
2022/09/06 12:10:37;;;;;;;1.30;1.07;;;31.50;26.30;;;;;;5057983;28;20858;-69
2022/09/06 12:13:53;;;;;;;1.60;1.20;;;32.70;23.20;;;;;;5051967;28;20916;-69
2022/09/06 12:16:19;;;;;;;1.30;0.97;;;33.70;21.70;;;;;;5012299;28;20460;-69
2022/09/06 12:18:48;;;;;;;1.20;0.90;;;35.00;20.10;;;;;;5068513;28;20414;-69
2022/09/06 12:21:33;;;;;;;1.20;0.83;;;35.40;19.40;;;;;;5066709;28;20480;-69
2022/09/06 12:23:59;;;;;;;1.20;0.90;;;35.20;19.50;;;;;;5060544;28;20417;-69
2022/09/06 12:26:48;;;;;;;1.20;0.90;;;34.50;20.00;;;;;;5060370;28;20422;-69
2022/09/06 12:29:14;;;;;;;1.20;0.90;;;33.60;20.90;;;;;;5065168;28;20421;-69
2022/09/06 12:31:49;;;;;;;1.20;0.97;;;33.90;20.70;;;;;;5063724;28;20453;-72
2022/09/06 12:34:23;;;;;;;1.20;0.90;;;32.40;22.90;;;;;;5067798;28;20178;-69
2022/09/06 12:37:03;;;;;;;1.20;0.90;;;32.60;23.40;;;;;;5060376;28;20429;-68
2022/09/06 12:39:29;;;;;;;1.30;1.00;;;32.10;23.10;;;;;;5060679;28;20434;-69
2022/09/06 12:42:05;;;;;;;1.27;1.00;;;31.60;25.60;;;;;;5068098;28;20449;-68
2022/09/06 12:44:41;;;;;;;1.30;1.00;;;31.80;24.80;;;;;;5058585;28;20429;-68
2022/09/06 12:47:27;;;;;;;1.30;1.00;;;32.30;24.70;;;;;;5062305;28;20512;-69
2022/09/06 12:50:17;;;;;;;1.30;1.00;;;32.60;24.10;;;;;;5069820;28;20421;-69
2022/09/06 12:53:15;;;;;;;1.30;0.90;;;33.20;22.90;;;;;;5051479;28;20488;-70
2022/09/06 12:55:40;;;;;;;1.30;1.00;;;33.10;22.50;;;;;;5053303;28;20786;-68
2022/09/06 12:58:09;;;;;;;1.30;1.00;;;32.70;22.40;;;;;;5054426;28;20976;-69
2022/09/06 13:00:41;;;;;;;1.23;1.00;;;32.80;23.20;;;;;;5065875;28;20687;-69
2022/09/06 13:03:19;;;;;;;1.30;1.10;;;32.50;21.50;;;;;;5052244;28;20450;-70
2022/09/06 13:05:45;;;;;;;1.30;0.90;;;30.50;23.90;;;;;;5064533;28;20934;-69
2022/09/06 13:08:30;;;;;;;1.30;1.00;;;30.70;25.90;;;;;;5069758;28;20819;-70
2022/09/06 13:10:56;;;;;;;1.30;1.10;;;31.30;24.60;;;;;;5060628;28;20444;-69